sim
Sign-in with your pilot id or email,
or register
Callsign
Passwort

Schedule Details

Flight Number: OEO8001
Departure: Portland International Airport (KPDX) at 22:40
Arrival: Munich Airport (EDDM) at 09:15

Weather Information
Getting current METAR information for KPDX 221253Z 00000KT 10SM BKN022 BKN037 17/14 A3003 RMK AO2 SLP167 T01670139
Getting current METAR information for EDDM 221250Z 05004KT 010V140 9999 FEW038 24/14 Q1012 NOSIG

Schedule Frequency

Route Map